sensor_id;sensor_type;location;lat;lon;timestamp;temperature;humidity
52869;DHT22;39100;53.480;6.158;2023-03-21T00:00:40;9.00;99.90
52869;DHT22;39100;53.480;6.158;2023-03-21T00:03:06;9.30;99.90
52869;DHT22;39100;53.480;6.158;2023-03-21T00:05:32;9.00;99.90
52869;DHT22;39100;53.480;6.158;2023-03-21T00:07:57;9.00;99.90
52869;DHT22;39100;53.480;6.158;2023-03-21T00:10:22;9.10;99.90
52869;DHT22;39100;53.480;6.158;2023-03-21T00:12:48;9.10;99.90
52869;DHT22;39100;53.480;6.158;2023-03-21T00:15:23;9.10;99.90
52869;DHT22;39100;53.480;6.158;2023-03-21T00:17:50;9.10;99.90
52869;DHT22;39100;53.480;6.158;2023-03-21T00:20:18;9.10;99.90
52869;DHT22;39100;53.480;6.158;2023-03-21T00:22:43;9.10;99.90
52869;DHT22;39100;53.480;6.158;2023-03-21T00:25:09;9.10;99.90
52869;DHT22;39100;53.480;6.158;2023-03-21T00:27:35;9.10;99.90
52869;DHT22;39100;53.480;6.158;2023-03-21T00:30:00;9.40;99.90
52869;DHT22;39100;53.480;6.158;2023-03-21T00:32:26;9.20;99.90
52869;DHT22;39100;53.480;6.158;2023-03-21T00:34:51;9.10;99.90
52869;DHT22;39100;53.480;6.158;2023-03-21T00:37:17;9.10;99.90
52869;DHT22;39100;53.480;6.158;2023-03-21T00:39:43;9.10;99.90
52869;DHT22;39100;53.480;6.158;2023-03-21T00:42:12;9.10;99.90
52869;DHT22;39100;53.480;6.158;2023-03-21T00:44:38;9.10;99.90
52869;DHT22;39100;53.480;6.158;2023-03-21T00:47:05;9.20;99.90
52869;DHT22;39100;53.480;6.158;2023-03-21T00:49:30;9.10;99.90
52869;DHT22;39100;53.480;6.158;2023-03-21T00:51:58;9.10;99.90
52869;DHT22;39100;53.480;6.158;2023-03-21T00:54:24;9.10;99.90
52869;DHT22;39100;53.480;6.158;2023-03-21T00:56:50;9.10;99.90
52869;DHT22;39100;53.480;6.158;2023-03-21T00:59:16;9.10;99.90
52869;DHT22;39100;53.480;6.158;2023-03-21T01:01:41;9.10;99.90
52869;DHT22;39100;53.480;6.158;2023-03-21T01:04:07;9.10;99.90
52869;DHT22;39100;53.480;6.158;2023-03-21T01:06:37;9.10;99.90
52869;DHT22;39100;53.480;6.158;2023-03-21T01:09:16;9.10;99.90
52869;DHT22;39100;53.480;6.158;2023-03-21T01:11:41;9.10;99.90
52869;DHT22;39100;53.480;6.158;2023-03-21T01:14:07;9.10;99.90
52869;DHT22;39100;53.480;6.158;2023-03-21T01:16:33;9.10;99.90
52869;DHT22;39100;53.480;6.158;2023-03-21T01:18:59;9.10;99.90
52869;DHT22;39100;53.480;6.158;2023-03-21T01:21:25;9.10;99.90
52869;DHT22;39100;53.480;6.158;2023-03-21T01:23:50;9.10;99.90
52869;DHT22;39100;53.480;6.158;2023-03-21T01:26:16;9.10;99.90
52869;DHT22;39100;53.480;6.158;2023-03-21T01:28:42;9.00;99.90
52869;DHT22;39100;53.480;6.158;2023-03-21T01:31:08;9.10;99.90
52869;DHT22;39100;53.480;6.158;2023-03-21T01:33:35;9.10;99.90
52869;DHT22;39100;53.480;6.158;2023-03-21T01:36:01;9.00;99.90
52869;DHT22;39100;53.480;6.158;2023-03-21T01:38:26;9.10;99.90
52869;DHT22;39100;53.480;6.158;2023-03-21T01:40:52;9.00;99.90
52869;DHT22;39100;53.480;6.158;2023-03-21T01:48:27;9.00;99.90
52869;DHT22;39100;53.480;6.158;2023-03-21T01:50:53;9.00;99.90
52869;DHT22;39100;53.480;6.158;2023-03-21T01:53:19;9.00;99.90
52869;DHT22;39100;53.480;6.158;2023-03-21T01:55:46;9.10;99.90
52869;DHT22;39100;53.480;6.158;2023-03-21T01:58:14;9.10;99.90
52869;DHT22;39100;53.480;6.158;2023-03-21T02:00:45;9.00;99.90
52869;DHT22;39100;53.480;6.158;2023-03-21T02:03:11;9.00;99.90
52869;DHT22;39100;53.480;6.158;2023-03-21T02:05:59;9.00;99.90
52869;DHT22;39100;53.480;6.158;2023-03-21T02:08:27;9.00;99.90
52869;DHT22;39100;53.480;6.158;2023-03-21T02:10:52;9.00;99.90
52869;DHT22;39100;53.480;6.158;2023-03-21T02:13:18;9.10;99.90
52869;DHT22;39100;53.480;6.158;2023-03-21T02:15:45;9.00;99.90
52869;DHT22;39100;53.480;6.158;2023-03-21T02:18:16;9.00;99.90
52869;DHT22;39100;53.480;6.158;2023-03-21T02:28:44;9.00;99.90
52869;DHT22;39100;53.480;6.158;2023-03-21T02:31:25;9.00;99.90
52869;DHT22;39100;53.480;6.158;2023-03-21T02:34:53;9.00;99.90
52869;DHT22;39100;53.480;6.158;2023-03-21T02:36:59;9.00;99.90
52869;DHT22;39100;53.480;6.158;2023-03-21T02:39:27;8.90;99.90
52869;DHT22;39100;53.480;6.158;2023-03-21T02:42:01;8.90;99.90
52869;DHT22;39100;53.480;6.158;2023-03-21T02:44:33;8.90;99.90
52869;DHT22;39100;53.480;6.158;2023-03-21T02:49:26;8.90;99.90
52869;DHT22;39100;53.480;6.158;2023-03-21T02:51:54;9.00;99.90
52869;DHT22;39100;53.480;6.158;2023-03-21T02:54:21;8.90;99.90
52869;DHT22;39100;53.480;6.158;2023-03-21T02:56:48;8.90;99.90
52869;DHT22;39100;53.480;6.158;2023-03-21T02:59:15;8.90;99.90
52869;DHT22;39100;53.480;6.158;2023-03-21T03:01:42;8.90;99.90
52869;DHT22;39100;53.480;6.158;2023-03-21T03:04:19;9.00;99.90
52869;DHT22;39100;53.480;6.158;2023-03-21T03:06:56;9.00;99.90
52869;DHT22;39100;53.480;6.158;2023-03-21T03:09:38;9.00;99.90
52869;DHT22;39100;53.480;6.158;2023-03-21T03:12:20;8.90;99.90
52869;DHT22;39100;53.480;6.158;2023-03-21T03:17:26;8.90;99.90
52869;DHT22;39100;53.480;6.158;2023-03-21T03:20:09;8.90;99.90
52869;DHT22;39100;53.480;6.158;2023-03-21T03:25:31;8.90;99.90
52869;DHT22;39100;53.480;6.158;2023-03-21T03:28:00;9.00;99.90
52869;DHT22;39100;53.480;6.158;2023-03-21T03:30:28;8.90;99.90
52869;DHT22;39100;53.480;6.158;2023-03-21T03:32:56;9.90;99.90
52869;DHT22;39100;53.480;6.158;2023-03-21T03:35:23;10.10;99.90
52869;DHT22;39100;53.480;6.158;2023-03-21T03:37:52;8.90;99.90
52869;DHT22;39100;53.480;6.158;2023-03-21T03:40:29;9.00;99.90
52869;DHT22;39100;53.480;6.158;2023-03-21T03:42:57;9.00;99.90
52869;DHT22;39100;53.480;6.158;2023-03-21T03:45:25;9.50;99.90
52869;DHT22;39100;53.480;6.158;2023-03-21T03:48:01;9.00;99.90
52869;DHT22;39100;53.480;6.158;2023-03-21T03:50:29;9.00;99.90
52869;DHT22;39100;53.480;6.158;2023-03-21T03:52:58;9.00;99.90
52869;DHT22;39100;53.480;6.158;2023-03-21T03:55:25;9.00;99.90
52869;DHT22;39100;53.480;6.158;2023-03-21T03:57:52;9.00;99.90
52869;DHT22;39100;53.480;6.158;2023-03-21T04:00:18;9.00;99.90
52869;DHT22;39100;53.480;6.158;2023-03-21T04:02:44;9.00;99.90
52869;DHT22;39100;53.480;6.158;2023-03-21T04:05:10;9.00;99.90
52869;DHT22;39100;53.480;6.158;2023-03-21T04:07:36;9.00;99.90
52869;DHT22;39100;53.480;6.158;2023-03-21T04:10:02;10.10;99.90
52869;DHT22;39100;53.480;6.158;2023-03-21T04:12:27;9.00;99.90
52869;DHT22;39100;53.480;6.158;2023-03-21T04:14:53;9.00;99.90
52869;DHT22;39100;53.480;6.158;2023-03-21T04:17:18;9.00;99.90
52869;DHT22;39100;53.480;6.158;2023-03-21T04:19:44;9.00;99.90
52869;DHT22;39100;53.480;6.158;2023-03-21T04:22:11;9.00;99.90
52869;DHT22;39100;53.480;6.158;2023-03-21T04:24:37;9.00;99.90
52869;DHT22;39100;53.480;6.158;2023-03-21T04:27:03;9.00;99.90
52869;DHT22;39100;53.480;6.158;2023-03-21T04:29:30;9.00;99.90
52869;DHT22;39100;53.480;6.158;2023-03-21T04:31:55;9.40;99.90
52869;DHT22;39100;53.480;6.158;2023-03-21T04:34:21;9.00;99.90
52869;DHT22;39100;53.480;6.158;2023-03-21T04:36:48;9.00;99.90
52869;DHT22;39100;53.480;6.158;2023-03-21T04:39:15;9.00;99.90
52869;DHT22;39100;53.480;6.158;2023-03-21T04:41:41;9.00;99.90
52869;DHT22;39100;53.480;6.158;2023-03-21T04:44:07;9.00;99.90
52869;DHT22;39100;53.480;6.158;2023-03-21T04:46:33;9.00;99.90
52869;DHT22;39100;53.480;6.158;2023-03-21T04:48:59;9.00;99.90
52869;DHT22;39100;53.480;6.158;2023-03-21T04:51:24;9.10;99.90
52869;DHT22;39100;53.480;6.158;2023-03-21T04:53:50;9.10;99.90
52869;DHT22;39100;53.480;6.158;2023-03-21T04:56:17;9.00;99.90
52869;DHT22;39100;53.480;6.158;2023-03-21T04:58:42;10.30;99.90
52869;DHT22;39100;53.480;6.158;2023-03-21T05:01:08;9.00;99.90
52869;DHT22;39100;53.480;6.158;2023-03-21T05:03:33;9.00;99.90
52869;DHT22;39100;53.480;6.158;2023-03-21T05:06:07;9.10;99.90
52869;DHT22;39100;53.480;6.158;2023-03-21T05:08:33;9.00;99.90
52869;DHT22;39100;53.480;6.158;2023-03-21T05:10:59;9.00;99.90
52869;DHT22;39100;53.480;6.158;2023-03-21T05:13:25;9.00;99.90
52869;DHT22;39100;53.480;6.158;2023-03-21T05:15:50;9.00;99.90
52869;DHT22;39100;53.480;6.158;2023-03-21T05:18:16;9.00;99.90
52869;DHT22;39100;53.480;6.158;2023-03-21T05:20:49;9.00;99.90
52869;DHT22;39100;53.480;6.158;2023-03-21T05:23:19;9.10;99.90
52869;DHT22;39100;53.480;6.158;2023-03-21T05:25:44;9.10;99.90
52869;DHT22;39100;53.480;6.158;2023-03-21T05:28:10;9.10;99.90
52869;DHT22;39100;53.480;6.158;2023-03-21T05:30:35;9.10;99.90
52869;DHT22;39100;53.480;6.158;2023-03-21T05:33:01;9.10;99.90
52869;DHT22;39100;53.480;6.158;2023-03-21T05:35:26;9.10;99.90
52869;DHT22;39100;53.480;6.158;2023-03-21T05:37:52;9.10;99.90
52869;DHT22;39100;53.480;6.158;2023-03-21T05:40:17;9.10;99.90
52869;DHT22;39100;53.480;6.158;2023-03-21T05:42:44;9.60;99.90
52869;DHT22;39100;53.480;6.158;2023-03-21T05:45:09;9.10;99.90
52869;DHT22;39100;53.480;6.158;2023-03-21T05:47:35;9.10;99.90
52869;DHT22;39100;53.480;6.158;2023-03-21T05:50:00;9.10;99.90
52869;DHT22;39100;53.480;6.158;2023-03-21T05:52:26;9.10;99.90
52869;DHT22;39100;53.480;6.158;2023-03-21T05:54:53;9.10;99.90
52869;DHT22;39100;53.480;6.158;2023-03-21T05:57:19;9.10;99.90
52869;DHT22;39100;53.480;6.158;2023-03-21T05:59:45;9.10;99.90
52869;DHT22;39100;53.480;6.158;2023-03-21T06:02:10;9.30;99.90
52869;DHT22;39100;53.480;6.158;2023-03-21T06:04:36;9.10;99.90
52869;DHT22;39100;53.480;6.158;2023-03-21T06:07:01;9.10;99.90
52869;DHT22;39100;53.480;6.158;2023-03-21T06:09:27;9.10;99.90
52869;DHT22;39100;53.480;6.158;2023-03-21T06:11:54;9.10;99.90
52869;DHT22;39100;53.480;6.158;2023-03-21T06:14:20;9.10;99.90
52869;DHT22;39100;53.480;6.158;2023-03-21T06:16:46;9.10;99.90
52869;DHT22;39100;53.480;6.158;2023-03-21T06:19:11;9.10;99.90
52869;DHT22;39100;53.480;6.158;2023-03-21T06:21:37;9.10;99.90
52869;DHT22;39100;53.480;6.158;2023-03-21T06:24:02;9.10;99.90
52869;DHT22;39100;53.480;6.158;2023-03-21T06:26:28;9.10;99.90
52869;DHT22;39100;53.480;6.158;2023-03-21T06:28:53;9.10;99.90
52869;DHT22;39100;53.480;6.158;2023-03-21T06:31:19;9.10;99.90
52869;DHT22;39100;53.480;6.158;2023-03-21T06:33:47;9.20;99.90
52869;DHT22;39100;53.480;6.158;2023-03-21T06:36:13;9.20;99.90
52869;DHT22;39100;53.480;6.158;2023-03-21T06:38:38;9.20;99.90
52869;DHT22;39100;53.480;6.158;2023-03-21T06:41:04;9.20;99.90
52869;DHT22;39100;53.480;6.158;2023-03-21T06:43:30;9.20;99.90
52869;DHT22;39100;53.480;6.158;2023-03-21T06:45:56;9.20;99.90
52869;DHT22;39100;53.480;6.158;2023-03-21T06:48:22;9.20;99.90
52869;DHT22;39100;53.480;6.158;2023-03-21T06:50:48;9.20;99.90
52869;DHT22;39100;53.480;6.158;2023-03-21T06:53:13;9.10;99.90
52869;DHT22;39100;53.480;6.158;2023-03-21T06:55:39;9.20;99.90
52869;DHT22;39100;53.480;6.158;2023-03-21T06:58:04;9.20;99.90
52869;DHT22;39100;53.480;6.158;2023-03-21T07:00:30;9.20;99.90
52869;DHT22;39100;53.480;6.158;2023-03-21T07:02:56;9.50;99.90
52869;DHT22;39100;53.480;6.158;2023-03-21T07:05:22;10.10;99.90
52869;DHT22;39100;53.480;6.158;2023-03-21T07:07:48;9.30;99.90
52869;DHT22;39100;53.480;6.158;2023-03-21T07:10:14;9.30;99.90
52869;DHT22;39100;53.480;6.158;2023-03-21T07:12:39;9.90;99.90
52869;DHT22;39100;53.480;6.158;2023-03-21T07:15:05;9.30;99.90
52869;DHT22;39100;53.480;6.158;2023-03-21T07:17:32;9.30;99.90
52869;DHT22;39100;53.480;6.158;2023-03-21T07:19:58;9.30;99.90
52869;DHT22;39100;53.480;6.158;2023-03-21T07:22:23;9.40;99.90
52869;DHT22;39100;53.480;6.158;2023-03-21T07:24:49;9.40;99.90
52869;DHT22;39100;53.480;6.158;2023-03-21T07:27:15;9.40;99.90
52869;DHT22;39100;53.480;6.158;2023-03-21T07:29:41;9.40;99.90
52869;DHT22;39100;53.480;6.158;2023-03-21T07:32:06;9.40;99.90
52869;DHT22;39100;53.480;6.158;2023-03-21T07:34:32;9.40;99.90
52869;DHT22;39100;53.480;6.158;2023-03-21T07:36:58;9.40;99.90
52869;DHT22;39100;53.480;6.158;2023-03-21T07:39:25;9.40;99.90
52869;DHT22;39100;53.480;6.158;2023-03-21T07:41:50;9.40;99.90
52869;DHT22;39100;53.480;6.158;2023-03-21T07:44:16;9.40;99.90
52869;DHT22;39100;53.480;6.158;2023-03-21T07:46:41;9.40;99.90
52869;DHT22;39100;53.480;6.158;2023-03-21T07:49:07;9.40;99.90
52869;DHT22;39100;53.480;6.158;2023-03-21T07:51:33;9.40;99.90
52869;DHT22;39100;53.480;6.158;2023-03-21T07:54:00;9.40;99.90
52869;DHT22;39100;53.480;6.158;2023-03-21T07:56:26;9.50;99.90
52869;DHT22;39100;53.480;6.158;2023-03-21T07:58:52;9.50;99.90
52869;DHT22;39100;53.480;6.158;2023-03-21T08:01:18;9.50;99.90
52869;DHT22;39100;53.480;6.158;2023-03-21T08:03:43;9.50;99.90
52869;DHT22;39100;53.480;6.158;2023-03-21T08:06:09;10.50;99.90
52869;DHT22;39100;53.480;6.158;2023-03-21T08:08:34;9.50;99.90
52869;DHT22;39100;53.480;6.158;2023-03-21T08:11:00;9.60;99.90
52869;DHT22;39100;53.480;6.158;2023-03-21T08:13:26;9.50;99.90
52869;DHT22;39100;53.480;6.158;2023-03-21T08:15:51;9.60;99.90
52869;DHT22;39100;53.480;6.158;2023-03-21T08:18:17;9.60;99.90
52869;DHT22;39100;53.480;6.158;2023-03-21T08:20:43;9.70;99.90
52869;DHT22;39100;53.480;6.158;2023-03-21T08:23:08;9.60;99.90
52869;DHT22;39100;53.480;6.158;2023-03-21T08:25:33;9.60;99.90
52869;DHT22;39100;53.480;6.158;2023-03-21T08:27:59;9.60;99.90
52869;DHT22;39100;53.480;6.158;2023-03-21T08:30:25;9.70;99.90
52869;DHT22;39100;53.480;6.158;2023-03-21T08:32:55;9.70;99.90
52869;DHT22;39100;53.480;6.158;2023-03-21T08:35:21;9.70;99.90
52869;DHT22;39100;53.480;6.158;2023-03-21T08:37:47;9.60;99.90
52869;DHT22;39100;53.480;6.158;2023-03-21T08:40:14;9.60;99.90
52869;DHT22;39100;53.480;6.158;2023-03-21T08:42:40;9.70;99.90
52869;DHT22;39100;53.480;6.158;2023-03-21T08:45:06;9.60;99.90
52869;DHT22;39100;53.480;6.158;2023-03-21T08:47:32;9.60;99.90
52869;DHT22;39100;53.480;6.158;2023-03-21T08:49:58;9.70;99.90
52869;DHT22;39100;53.480;6.158;2023-03-21T08:52:24;9.80;99.90
52869;DHT22;39100;53.480;6.158;2023-03-21T08:54:50;9.80;99.90
52869;DHT22;39100;53.480;6.158;2023-03-21T08:57:15;9.80;99.90
52869;DHT22;39100;53.480;6.158;2023-03-21T08:59:41;9.80;99.90
52869;DHT22;39100;53.480;6.158;2023-03-21T09:02:06;9.80;99.90
52869;DHT22;39100;53.480;6.158;2023-03-21T09:04:32;9.80;99.90
52869;DHT22;39100;53.480;6.158;2023-03-21T09:06:58;9.90;99.90
52869;DHT22;39100;53.480;6.158;2023-03-21T09:09:26;11.20;99.90
52869;DHT22;39100;53.480;6.158;2023-03-21T09:11:52;10.00;99.90
52869;DHT22;39100;53.480;6.158;2023-03-21T09:14:18;10.00;99.90
52869;DHT22;39100;53.480;6.158;2023-03-21T09:16:43;10.10;99.90
52869;DHT22;39100;53.480;6.158;2023-03-21T09:19:09;10.10;99.90
52869;DHT22;39100;53.480;6.158;2023-03-21T09:21:35;10.80;99.90
52869;DHT22;39100;53.480;6.158;2023-03-21T09:24:01;10.10;99.90
52869;DHT22;39100;53.480;6.158;2023-03-21T09:26:27;10.10;99.90
52869;DHT22;39100;53.480;6.158;2023-03-21T09:28:53;10.10;99.90
52869;DHT22;39100;53.480;6.158;2023-03-21T09:31:19;10.10;99.90
52869;DHT22;39100;53.480;6.158;2023-03-21T09:33:47;10.10;99.90
52869;DHT22;39100;53.480;6.158;2023-03-21T09:36:13;10.00;99.90
52869;DHT22;39100;53.480;6.158;2023-03-21T09:38:40;10.10;99.90
52869;DHT22;39100;53.480;6.158;2023-03-21T09:48:57;10.10;99.90
52869;DHT22;39100;53.480;6.158;2023-03-21T09:51:27;10.10;99.90
52869;DHT22;39100;53.480;6.158;2023-03-21T09:53:53;10.00;99.90
52869;DHT22;39100;53.480;6.158;2023-03-21T09:56:20;10.00;99.90
52869;DHT22;39100;53.480;6.158;2023-03-21T09:58:50;10.00;99.90
52869;DHT22;39100;53.480;6.158;2023-03-21T10:01:18;10.00;99.90
52869;DHT22;39100;53.480;6.158;2023-03-21T10:03:53;9.90;99.90
52869;DHT22;39100;53.480;6.158;2023-03-21T10:06:20;9.90;99.90
52869;DHT22;39100;53.480;6.158;2023-03-21T10:11:43;9.70;99.90
52869;DHT22;39100;53.480;6.158;2023-03-21T10:14:29;9.70;99.90
52869;DHT22;39100;53.480;6.158;2023-03-21T10:17:05;9.70;99.90
52869;DHT22;39100;53.480;6.158;2023-03-21T10:19:34;9.70;99.90
52869;DHT22;39100;53.480;6.158;2023-03-21T10:22:00;9.70;99.90
52869;DHT22;39100;53.480;6.158;2023-03-21T10:24:26;9.70;99.90
52869;DHT22;39100;53.480;6.158;2023-03-21T10:26:52;9.70;99.90
52869;DHT22;39100;53.480;6.158;2023-03-21T10:29:20;9.80;99.90
52869;DHT22;39100;53.480;6.158;2023-03-21T10:31:46;9.90;99.90
52869;DHT22;39100;53.480;6.158;2023-03-21T10:36:47;10.00;99.90
52869;DHT22;39100;53.480;6.158;2023-03-21T10:39:17;10.10;99.90
52869;DHT22;39100;53.480;6.158;2023-03-21T10:41:44;10.20;99.90
52869;DHT22;39100;53.480;6.158;2023-03-21T10:44:11;10.30;99.90
52869;DHT22;39100;53.480;6.158;2023-03-21T10:46:48;10.30;99.90
52869;DHT22;39100;53.480;6.158;2023-03-21T10:49:15;10.50;99.90
52869;DHT22;39100;53.480;6.158;2023-03-21T10:51:40;10.60;99.90
52869;DHT22;39100;53.480;6.158;2023-03-21T10:54:07;10.70;99.90
52869;DHT22;39100;53.480;6.158;2023-03-21T10:56:37;10.80;99.90
52869;DHT22;39100;53.480;6.158;2023-03-21T10:59:04;10.80;99.90
52869;DHT22;39100;53.480;6.158;2023-03-21T11:01:38;11.20;99.90
52869;DHT22;39100;53.480;6.158;2023-03-21T11:04:06;10.90;99.90
52869;DHT22;39100;53.480;6.158;2023-03-21T11:06:33;10.90;99.90
52869;DHT22;39100;53.480;6.158;2023-03-21T11:11:48;10.90;99.90
52869;DHT22;39100;53.480;6.158;2023-03-21T11:19:46;11.10;99.90
52869;DHT22;39100;53.480;6.158;2023-03-21T11:22:11;11.20;99.90
52869;DHT22;39100;53.480;6.158;2023-03-21T11:24:37;11.00;99.90
52869;DHT22;39100;53.480;6.158;2023-03-21T11:27:06;11.10;99.90
52869;DHT22;39100;53.480;6.158;2023-03-21T11:29:35;11.10;99.90
52869;DHT22;39100;53.480;6.158;2023-03-21T11:34:50;11.40;99.90
52869;DHT22;39100;53.480;6.158;2023-03-21T11:39:53;11.90;99.90
52869;DHT22;39100;53.480;6.158;2023-03-21T11:42:25;12.20;99.90
52869;DHT22;39100;53.480;6.158;2023-03-21T11:44:56;12.10;99.90
52869;DHT22;39100;53.480;6.158;2023-03-21T11:47:22;12.00;99.90
52869;DHT22;39100;53.480;6.158;2023-03-21T11:49:47;12.00;99.90
52869;DHT22;39100;53.480;6.158;2023-03-21T11:52:17;11.90;99.90
52869;DHT22;39100;53.480;6.158;2023-03-21T11:54:54;11.80;99.90
52869;DHT22;39100;53.480;6.158;2023-03-21T12:00:28;11.60;99.90
52869;DHT22;39100;53.480;6.158;2023-03-21T12:03:14;11.50;99.90
52869;DHT22;39100;53.480;6.158;2023-03-21T12:05:51;11.50;99.90
52869;DHT22;39100;53.480;6.158;2023-03-21T12:08:41;11.50;99.90
52869;DHT22;39100;53.480;6.158;2023-03-21T12:11:10;11.40;99.90
52869;DHT22;39100;53.480;6.158;2023-03-21T12:13:53;11.40;99.90
52869;DHT22;39100;53.480;6.158;2023-03-21T12:16:34;11.40;99.90
52869;DHT22;39100;53.480;6.158;2023-03-21T12:19:20;11.30;99.90
52869;DHT22;39100;53.480;6.158;2023-03-21T12:22:00;11.30;99.90
52869;DHT22;39100;53.480;6.158;2023-03-21T12:24:32;11.20;99.90
52869;DHT22;39100;53.480;6.158;2023-03-21T12:32:17;11.10;99.90
52869;DHT22;39100;53.480;6.158;2023-03-21T12:40:21;11.00;99.90
52869;DHT22;39100;53.480;6.158;2023-03-21T12:42:56;10.90;99.90
52869;DHT22;39100;53.480;6.158;2023-03-21T12:45:37;10.90;99.90
52869;DHT22;39100;53.480;6.158;2023-03-21T12:48:12;10.90;99.90
52869;DHT22;39100;53.480;6.158;2023-03-21T12:50:39;11.00;99.90
52869;DHT22;39100;53.480;6.158;2023-03-21T12:55:51;11.30;99.90
52869;DHT22;39100;53.480;6.158;2023-03-21T12:58:19;11.50;99.90
52869;DHT22;39100;53.480;6.158;2023-03-21T13:00:48;11.70;99.90
52869;DHT22;39100;53.480;6.158;2023-03-21T13:03:35;11.70;99.90
52869;DHT22;39100;53.480;6.158;2023-03-21T13:06:03;11.70;99.90
52869;DHT22;39100;53.480;6.158;2023-03-21T13:11:06;11.70;99.90
52869;DHT22;39100;53.480;6.158;2023-03-21T13:13:43;11.70;99.90
52869;DHT22;39100;53.480;6.158;2023-03-21T13:16:13;11.70;99.90
52869;DHT22;39100;53.480;6.158;2023-03-21T13:18:51;11.70;99.90
52869;DHT22;39100;53.480;6.158;2023-03-21T13:26:40;11.80;99.90
52869;DHT22;39100;53.480;6.158;2023-03-21T13:29:13;12.00;99.90
52869;DHT22;39100;53.480;6.158;2023-03-21T13:31:42;12.00;99.90
52869;DHT22;39100;53.480;6.158;2023-03-21T13:34:08;12.00;99.90
52869;DHT22;39100;53.480;6.158;2023-03-21T13:36:34;12.50;99.90
52869;DHT22;39100;53.480;6.158;2023-03-21T13:39:03;12.00;99.90
52869;DHT22;39100;53.480;6.158;2023-03-21T13:41:31;11.90;99.90
52869;DHT22;39100;53.480;6.158;2023-03-21T13:51:40;11.90;99.90
52869;DHT22;39100;53.480;6.158;2023-03-21T13:54:13;11.90;99.90
52869;DHT22;39100;53.480;6.158;2023-03-21T13:59:11;12.10;99.90
52869;DHT22;39100;53.480;6.158;2023-03-21T14:06:30;12.40;99.90
52869;DHT22;39100;53.480;6.158;2023-03-21T14:08:56;12.30;99.90
52869;DHT22;39100;53.480;6.158;2023-03-21T14:11:22;12.20;99.90
52869;DHT22;39100;53.480;6.158;2023-03-21T14:13:48;12.10;99.90
52869;DHT22;39100;53.480;6.158;2023-03-21T14:16:14;12.10;99.90
52869;DHT22;39100;53.480;6.158;2023-03-21T14:18:49;12.00;99.90
52869;DHT22;39100;53.480;6.158;2023-03-21T14:21:17;11.90;99.90
52869;DHT22;39100;53.480;6.158;2023-03-21T14:23:43;11.80;99.90
52869;DHT22;39100;53.480;6.158;2023-03-21T14:26:10;12.30;99.90
52869;DHT22;39100;53.480;6.158;2023-03-21T14:28:35;11.80;99.90
52869;DHT22;39100;53.480;6.158;2023-03-21T14:31:01;11.90;99.90
52869;DHT22;39100;53.480;6.158;2023-03-21T14:35:57;12.10;99.90
52869;DHT22;39100;53.480;6.158;2023-03-21T14:38:26;12.20;99.90
52869;DHT22;39100;53.480;6.158;2023-03-21T14:40:53;12.60;99.90
52869;DHT22;39100;53.480;6.158;2023-03-21T14:43:20;12.80;99.90
52869;DHT22;39100;53.480;6.158;2023-03-21T14:45:47;12.90;99.90
52869;DHT22;39100;53.480;6.158;2023-03-21T14:48:14;13.00;99.90
52869;DHT22;39100;53.480;6.158;2023-03-21T14:50:47;13.00;99.90
52869;DHT22;39100;53.480;6.158;2023-03-21T14:53:18;12.90;99.90
52869;DHT22;39100;53.480;6.158;2023-03-21T14:58:37;12.60;99.90
52869;DHT22;39100;53.480;6.158;2023-03-21T15:01:03;12.40;99.90
52869;DHT22;39100;53.480;6.158;2023-03-21T15:03:31;12.30;99.90
52869;DHT22;39100;53.480;6.158;2023-03-21T15:05:57;12.20;99.90
52869;DHT22;39100;53.480;6.158;2023-03-21T15:08:23;12.00;99.90
52869;DHT22;39100;53.480;6.158;2023-03-21T15:10:54;11.90;99.90
52869;DHT22;39100;53.480;6.158;2023-03-21T15:13:21;11.70;99.90
52869;DHT22;39100;53.480;6.158;2023-03-21T15:15:47;11.60;99.90
52869;DHT22;39100;53.480;6.158;2023-03-21T15:18:14;11.60;99.90
52869;DHT22;39100;53.480;6.158;2023-03-21T15:20:40;11.50;99.90
52869;DHT22;39100;53.480;6.158;2023-03-21T15:23:10;11.70;99.90
52869;DHT22;39100;53.480;6.158;2023-03-21T15:25:37;11.30;99.90
52869;DHT22;39100;53.480;6.158;2023-03-21T15:28:03;11.20;99.90
52869;DHT22;39100;53.480;6.158;2023-03-21T15:30:29;11.20;99.90
52869;DHT22;39100;53.480;6.158;2023-03-21T15:32:56;11.10;99.90
52869;DHT22;39100;53.480;6.158;2023-03-21T15:35:33;11.00;99.90
52869;DHT22;39100;53.480;6.158;2023-03-21T15:37:59;11.00;99.90
52869;DHT22;39100;53.480;6.158;2023-03-21T15:40:28;10.90;99.90
52869;DHT22;39100;53.480;6.158;2023-03-21T15:43:14;10.90;99.90
52869;DHT22;39100;53.480;6.158;2023-03-21T15:45:50;10.80;99.90
52869;DHT22;39100;53.480;6.158;2023-03-21T15:48:16;10.90;99.90
52869;DHT22;39100;53.480;6.158;2023-03-21T15:50:54;10.80;99.90
52869;DHT22;39100;53.480;6.158;2023-03-21T15:53:21;10.80;99.90
52869;DHT22;39100;53.480;6.158;2023-03-21T15:55:48;11.10;99.90
52869;DHT22;39100;53.480;6.158;2023-03-21T15:58:23;11.00;99.90
52869;DHT22;39100;53.480;6.158;2023-03-21T16:00:59;10.80;99.90
52869;DHT22;39100;53.480;6.158;2023-03-21T16:03:29;10.80;99.90
52869;DHT22;39100;53.480;6.158;2023-03-21T16:08:32;10.70;99.90
52869;DHT22;39100;53.480;6.158;2023-03-21T16:11:35;10.60;99.90
52869;DHT22;39100;53.480;6.158;2023-03-21T16:13:53;10.60;99.90
52869;DHT22;39100;53.480;6.158;2023-03-21T16:16:23;10.50;99.90
52869;DHT22;39100;53.480;6.158;2023-03-21T16:18:49;10.50;99.90
52869;DHT22;39100;53.480;6.158;2023-03-21T16:21:16;10.50;99.90
52869;DHT22;39100;53.480;6.158;2023-03-21T16:23:42;10.50;99.90
52869;DHT22;39100;53.480;6.158;2023-03-21T16:26:15;10.50;99.90
52869;DHT22;39100;53.480;6.158;2023-03-21T16:28:41;10.40;99.90
52869;DHT22;39100;53.480;6.158;2023-03-21T16:31:25;11.70;99.90
52869;DHT22;39100;53.480;6.158;2023-03-21T16:33:51;10.30;99.90
52869;DHT22;39100;53.480;6.158;2023-03-21T16:36:21;11.20;99.90
52869;DHT22;39100;53.480;6.158;2023-03-21T16:38:47;10.20;99.90
52869;DHT22;39100;53.480;6.158;2023-03-21T16:41:20;10.20;99.90
52869;DHT22;39100;53.480;6.158;2023-03-21T16:43:45;10.20;99.90
52869;DHT22;39100;53.480;6.158;2023-03-21T16:46:12;10.10;99.90
52869;DHT22;39100;53.480;6.158;2023-03-21T16:48:38;10.10;99.90
52869;DHT22;39100;53.480;6.158;2023-03-21T16:51:03;10.10;99.90
52869;DHT22;39100;53.480;6.158;2023-03-21T16:53:29;10.00;99.90
52869;DHT22;39100;53.480;6.158;2023-03-21T16:55:55;10.10;99.90
52869;DHT22;39100;53.480;6.158;2023-03-21T16:58:27;10.00;99.90
52869;DHT22;39100;53.480;6.158;2023-03-21T17:00:53;10.00;99.90
52869;DHT22;39100;53.480;6.158;2023-03-21T17:03:18;10.00;99.90
52869;DHT22;39100;53.480;6.158;2023-03-21T17:05:45;10.00;99.90
52869;DHT22;39100;53.480;6.158;2023-03-21T17:08:15;9.90;99.90
52869;DHT22;39100;53.480;6.158;2023-03-21T17:10:41;9.90;99.90
52869;DHT22;39100;53.480;6.158;2023-03-21T17:13:06;9.90;99.90
52869;DHT22;39100;53.480;6.158;2023-03-21T17:15:32;9.90;99.90
52869;DHT22;39100;53.480;6.158;2023-03-21T17:17:57;9.90;99.90
52869;DHT22;39100;53.480;6.158;2023-03-21T17:20:32;9.90;99.90